sensor_id;sensor_type;location;lat;lon;timestamp;P1;durP1;ratioP1;P2;durP2;ratioP2
10863;SDS011;5485;37.558;126.950;2023-03-12T00:00:51;72.40;;;42.63;;
10863;SDS011;5485;37.558;126.950;2023-03-12T00:03:18;77.73;;;42.40;;
10863;SDS011;5485;37.558;126.950;2023-03-12T00:05:45;84.20;;;44.87;;
10863;SDS011;5485;37.558;126.950;2023-03-12T00:08:13;81.27;;;45.20;;
10863;SDS011;5485;37.558;126.950;2023-03-12T00:10:40;92.87;;;47.63;;
10863;SDS011;5485;37.558;126.950;2023-03-12T00:13:07;96.47;;;46.87;;
10863;SDS011;5485;37.558;126.950;2023-03-12T00:15:34;100.67;;;46.17;;
10863;SDS011;5485;37.558;126.950;2023-03-12T00:18:02;83.77;;;42.93;;
10863;SDS011;5485;37.558;126.950;2023-03-12T00:20:30;92.97;;;43.33;;
10863;SDS011;5485;37.558;126.950;2023-03-12T00:22:57;77.27;;;39.67;;
10863;SDS011;5485;37.558;126.950;2023-03-12T00:25:24;77.83;;;40.30;;
10863;SDS011;5485;37.558;126.950;2023-03-12T00:27:51;73.20;;;39.57;;
10863;SDS011;5485;37.558;126.950;2023-03-12T00:30:18;67.70;;;35.83;;
10863;SDS011;5485;37.558;126.950;2023-03-12T00:32:45;64.47;;;36.53;;
10863;SDS011;5485;37.558;126.950;2023-03-12T00:35:12;64.33;;;35.63;;
10863;SDS011;5485;37.558;126.950;2023-03-12T00:37:39;66.03;;;34.97;;
10863;SDS011;5485;37.558;126.950;2023-03-12T00:40:06;65.97;;;35.53;;
10863;SDS011;5485;37.558;126.950;2023-03-12T00:42:35;67.90;;;34.20;;
10863;SDS011;5485;37.558;126.950;2023-03-12T00:45:02;56.57;;;32.17;;
10863;SDS011;5485;37.558;126.950;2023-03-12T00:47:29;57.63;;;33.37;;
10863;SDS011;5485;37.558;126.950;2023-03-12T00:49:56;51.17;;;32.60;;
10863;SDS011;5485;37.558;126.950;2023-03-12T00:52:22;52.50;;;30.43;;
10863;SDS011;5485;37.558;126.950;2023-03-12T00:54:49;55.63;;;32.13;;
10863;SDS011;5485;37.558;126.950;2023-03-12T00:57:16;51.13;;;31.30;;
10863;SDS011;5485;37.558;126.950;2023-03-12T00:59:43;46.67;;;27.17;;
10863;SDS011;5485;37.558;126.950;2023-03-12T01:02:10;46.37;;;28.47;;
10863;SDS011;5485;37.558;126.950;2023-03-12T01:04:37;48.23;;;27.70;;
10863;SDS011;5485;37.558;126.950;2023-03-12T01:07:04;40.63;;;26.90;;
10863;SDS011;5485;37.558;126.950;2023-03-12T01:09:32;41.07;;;26.90;;
10863;SDS011;5485;37.558;126.950;2023-03-12T01:11:59;41.53;;;25.47;;
10863;SDS011;5485;37.558;126.950;2023-03-12T01:14:26;39.57;;;26.03;;
10863;SDS011;5485;37.558;126.950;2023-03-12T01:16:53;32.77;;;23.03;;
10863;SDS011;5485;37.558;126.950;2023-03-12T01:19:19;32.80;;;23.93;;
10863;SDS011;5485;37.558;126.950;2023-03-12T01:21:46;37.57;;;23.63;;
10863;SDS011;5485;37.558;126.950;2023-03-12T01:24:13;36.73;;;24.57;;
10863;SDS011;5485;37.558;126.950;2023-03-12T01:26:40;35.20;;;25.77;;
10863;SDS011;5485;37.558;126.950;2023-03-12T01:29:07;35.37;;;25.90;;
10863;SDS011;5485;37.558;126.950;2023-03-12T01:31:34;38.60;;;24.97;;
10863;SDS011;5485;37.558;126.950;2023-03-12T01:34:01;37.50;;;23.50;;
10863;SDS011;5485;37.558;126.950;2023-03-12T01:36:28;37.23;;;25.40;;
10863;SDS011;5485;37.558;126.950;2023-03-12T01:38:57;42.43;;;25.50;;
10863;SDS011;5485;37.558;126.950;2023-03-12T01:41:25;39.87;;;26.83;;
10863;SDS011;5485;37.558;126.950;2023-03-12T01:43:53;44.10;;;27.03;;
10863;SDS011;5485;37.558;126.950;2023-03-12T01:51:40;35.70;;;24.23;;
10863;SDS011;5485;37.558;126.950;2023-03-12T01:54:18;34.03;;;23.37;;
10863;SDS011;5485;37.558;126.950;2023-03-12T01:57:07;31.33;;;24.07;;
10863;SDS011;5485;37.558;126.950;2023-03-12T01:59:40;38.40;;;25.63;;
10863;SDS011;5485;37.558;126.950;2023-03-12T02:02:17;39.03;;;25.77;;
10863;SDS011;5485;37.558;126.950;2023-03-12T02:04:56;39.13;;;25.80;;
10863;SDS011;5485;37.558;126.950;2023-03-12T02:07:33;36.93;;;24.07;;
10863;SDS011;5485;37.558;126.950;2023-03-12T02:10:00;33.47;;;24.17;;
10863;SDS011;5485;37.558;126.950;2023-03-12T02:12:29;38.63;;;25.10;;
10863;SDS011;5485;37.558;126.950;2023-03-12T02:14:56;34.27;;;25.90;;
10863;SDS011;5485;37.558;126.950;2023-03-12T02:17:23;35.03;;;24.00;;
10863;SDS011;5485;37.558;126.950;2023-03-12T02:22:36;37.50;;;25.00;;
10863;SDS011;5485;37.558;126.950;2023-03-12T02:27:51;31.50;;;23.20;;
10863;SDS011;5485;37.558;126.950;2023-03-12T02:30:19;32.53;;;22.83;;
10863;SDS011;5485;37.558;126.950;2023-03-12T02:32:46;35.87;;;22.73;;
10863;SDS011;5485;37.558;126.950;2023-03-12T02:35:15;32.23;;;22.40;;
10863;SDS011;5485;37.558;126.950;2023-03-12T02:37:49;27.13;;;19.77;;
10863;SDS011;5485;37.558;126.950;2023-03-12T02:43:05;27.23;;;20.13;;
10863;SDS011;5485;37.558;126.950;2023-03-12T02:45:34;30.37;;;21.70;;
10863;SDS011;5485;37.558;126.950;2023-03-12T02:48:03;30.07;;;21.73;;
10863;SDS011;5485;37.558;126.950;2023-03-12T02:50:34;28.13;;;18.10;;
10863;SDS011;5485;37.558;126.950;2023-03-12T02:53:01;29.30;;;20.73;;
10863;SDS011;5485;37.558;126.950;2023-03-12T02:55:28;25.33;;;17.27;;
10863;SDS011;5485;37.558;126.950;2023-03-12T02:58:01;29.27;;;18.60;;
10863;SDS011;5485;37.558;126.950;2023-03-12T03:00:27;27.40;;;18.77;;
10863;SDS011;5485;37.558;126.950;2023-03-12T03:02:59;24.50;;;15.97;;
10863;SDS011;5485;37.558;126.950;2023-03-12T03:05:26;21.17;;;15.27;;
10863;SDS011;5485;37.558;126.950;2023-03-12T03:08:00;24.90;;;17.23;;
10863;SDS011;5485;37.558;126.950;2023-03-12T03:10:28;23.23;;;17.00;;
10863;SDS011;5485;37.558;126.950;2023-03-12T03:12:54;25.47;;;17.73;;
10863;SDS011;5485;37.558;126.950;2023-03-12T03:15:22;25.37;;;17.43;;
10863;SDS011;5485;37.558;126.950;2023-03-12T03:17:49;25.17;;;16.03;;
10863;SDS011;5485;37.558;126.950;2023-03-12T03:20:16;20.33;;;15.80;;
10863;SDS011;5485;37.558;126.950;2023-03-12T03:22:44;19.40;;;14.07;;
10863;SDS011;5485;37.558;126.950;2023-03-12T03:25:11;18.87;;;14.20;;
10863;SDS011;5485;37.558;126.950;2023-03-12T03:27:38;16.73;;;11.83;;
10863;SDS011;5485;37.558;126.950;2023-03-12T03:30:05;16.17;;;12.33;;
10863;SDS011;5485;37.558;126.950;2023-03-12T03:32:32;17.77;;;12.10;;
10863;SDS011;5485;37.558;126.950;2023-03-12T03:34:59;18.67;;;12.50;;
10863;SDS011;5485;37.558;126.950;2023-03-12T03:37:26;16.30;;;13.10;;
10863;SDS011;5485;37.558;126.950;2023-03-12T03:39:53;22.00;;;12.67;;
10863;SDS011;5485;37.558;126.950;2023-03-12T03:42:20;17.37;;;12.23;;
10863;SDS011;5485;37.558;126.950;2023-03-12T03:44:47;22.27;;;13.13;;
10863;SDS011;5485;37.558;126.950;2023-03-12T03:47:14;19.87;;;13.63;;
10863;SDS011;5485;37.558;126.950;2023-03-12T03:49:41;22.67;;;13.60;;
10863;SDS011;5485;37.558;126.950;2023-03-12T03:52:09;20.53;;;13.37;;
10863;SDS011;5485;37.558;126.950;2023-03-12T03:54:37;23.83;;;14.20;;
10863;SDS011;5485;37.558;126.950;2023-03-12T03:57:09;23.30;;;14.57;;
10863;SDS011;5485;37.558;126.950;2023-03-12T03:59:36;22.60;;;15.47;;
10863;SDS011;5485;37.558;126.950;2023-03-12T04:02:03;28.03;;;15.60;;
10863;SDS011;5485;37.558;126.950;2023-03-12T04:04:30;21.80;;;13.43;;
10863;SDS011;5485;37.558;126.950;2023-03-12T04:06:57;19.10;;;10.60;;
10863;SDS011;5485;37.558;126.950;2023-03-12T04:09:26;22.03;;;13.47;;
10863;SDS011;5485;37.558;126.950;2023-03-12T04:11:54;20.03;;;12.70;;
10863;SDS011;5485;37.558;126.950;2023-03-12T04:14:21;19.47;;;12.17;;
10863;SDS011;5485;37.558;126.950;2023-03-12T04:16:48;17.40;;;13.70;;
10863;SDS011;5485;37.558;126.950;2023-03-12T04:19:15;19.20;;;13.53;;
10863;SDS011;5485;37.558;126.950;2023-03-12T04:21:42;14.10;;;10.60;;
10863;SDS011;5485;37.558;126.950;2023-03-12T04:24:12;20.07;;;12.73;;
10863;SDS011;5485;37.558;126.950;2023-03-12T04:26:41;21.90;;;12.40;;
10863;SDS011;5485;37.558;126.950;2023-03-12T04:29:08;14.50;;;10.63;;
10863;SDS011;5485;37.558;126.950;2023-03-12T04:31:35;18.00;;;11.60;;
10863;SDS011;5485;37.558;126.950;2023-03-12T04:34:02;16.97;;;11.70;;
10863;SDS011;5485;37.558;126.950;2023-03-12T04:36:29;18.30;;;12.10;;
10863;SDS011;5485;37.558;126.950;2023-03-12T04:38:56;15.43;;;10.77;;
10863;SDS011;5485;37.558;126.950;2023-03-12T04:41:23;16.63;;;10.77;;
10863;SDS011;5485;37.558;126.950;2023-03-12T04:43:50;16.20;;;7.93;;
10863;SDS011;5485;37.558;126.950;2023-03-12T04:46:17;21.37;;;9.20;;
10863;SDS011;5485;37.558;126.950;2023-03-12T04:48:47;16.83;;;8.10;;
10863;SDS011;5485;37.558;126.950;2023-03-12T04:51:14;16.60;;;6.67;;
10863;SDS011;5485;37.558;126.950;2023-03-12T04:53:41;21.20;;;9.20;;
10863;SDS011;5485;37.558;126.950;2023-03-12T04:56:11;18.33;;;9.13;;
10863;SDS011;5485;37.558;126.950;2023-03-12T04:58:38;29.27;;;10.57;;
10863;SDS011;5485;37.558;126.950;2023-03-12T05:01:04;20.73;;;9.80;;
10863;SDS011;5485;37.558;126.950;2023-03-12T05:03:31;15.53;;;10.23;;
10863;SDS011;5485;37.558;126.950;2023-03-12T05:05:59;23.90;;;10.57;;
10863;SDS011;5485;37.558;126.950;2023-03-12T05:08:26;22.03;;;11.43;;
10863;SDS011;5485;37.558;126.950;2023-03-12T05:10:53;26.77;;;10.07;;
10863;SDS011;5485;37.558;126.950;2023-03-12T05:13:22;22.80;;;11.73;;
10863;SDS011;5485;37.558;126.950;2023-03-12T05:15:50;30.33;;;11.90;;
10863;SDS011;5485;37.558;126.950;2023-03-12T05:18:17;19.73;;;11.43;;
10863;SDS011;5485;37.558;126.950;2023-03-12T05:20:45;24.93;;;11.07;;
10863;SDS011;5485;37.558;126.950;2023-03-12T05:23:22;22.30;;;11.23;;
10863;SDS011;5485;37.558;126.950;2023-03-12T05:25:50;26.17;;;11.33;;
10863;SDS011;5485;37.558;126.950;2023-03-12T05:28:16;27.43;;;11.87;;
10863;SDS011;5485;37.558;126.950;2023-03-12T05:30:44;24.37;;;9.70;;
10863;SDS011;5485;37.558;126.950;2023-03-12T05:33:12;23.67;;;10.03;;
10863;SDS011;5485;37.558;126.950;2023-03-12T05:35:39;23.33;;;10.27;;
10863;SDS011;5485;37.558;126.950;2023-03-12T05:38:06;23.23;;;9.73;;
10863;SDS011;5485;37.558;126.950;2023-03-12T05:40:32;33.70;;;9.83;;
10863;SDS011;5485;37.558;126.950;2023-03-12T05:42:59;22.97;;;9.30;;
10863;SDS011;5485;37.558;126.950;2023-03-12T05:45:26;24.73;;;10.00;;
10863;SDS011;5485;37.558;126.950;2023-03-12T05:47:53;23.70;;;8.77;;
10863;SDS011;5485;37.558;126.950;2023-03-12T05:50:20;22.00;;;8.67;;
10863;SDS011;5485;37.558;126.950;2023-03-12T05:52:50;21.80;;;8.73;;
10863;SDS011;5485;37.558;126.950;2023-03-12T05:55:20;24.00;;;8.93;;
10863;SDS011;5485;37.558;126.950;2023-03-12T05:57:49;25.60;;;10.57;;
10863;SDS011;5485;37.558;126.950;2023-03-12T06:00:16;17.07;;;9.23;;
10863;SDS011;5485;37.558;126.950;2023-03-12T06:02:43;17.97;;;8.30;;
10863;SDS011;5485;37.558;126.950;2023-03-12T06:05:10;20.20;;;9.27;;
10863;SDS011;5485;37.558;126.950;2023-03-12T06:07:37;23.57;;;9.30;;
10863;SDS011;5485;37.558;126.950;2023-03-12T06:10:04;27.77;;;9.33;;
10863;SDS011;5485;37.558;126.950;2023-03-12T06:12:32;20.20;;;9.10;;
10863;SDS011;5485;37.558;126.950;2023-03-12T06:14:59;27.83;;;9.97;;
10863;SDS011;5485;37.558;126.950;2023-03-12T06:17:27;25.73;;;9.60;;
10863;SDS011;5485;37.558;126.950;2023-03-12T06:19:54;19.83;;;10.27;;
10863;SDS011;5485;37.558;126.950;2023-03-12T06:22:24;23.53;;;9.90;;
10863;SDS011;5485;37.558;126.950;2023-03-12T06:24:54;26.33;;;10.40;;
10863;SDS011;5485;37.558;126.950;2023-03-12T06:27:21;20.67;;;10.87;;
10863;SDS011;5485;37.558;126.950;2023-03-12T06:29:48;19.27;;;9.40;;
10863;SDS011;5485;37.558;126.950;2023-03-12T06:32:15;20.07;;;9.93;;
10863;SDS011;5485;37.558;126.950;2023-03-12T06:34:43;26.10;;;10.03;;
10863;SDS011;5485;37.558;126.950;2023-03-12T06:37:11;22.53;;;9.33;;
10863;SDS011;5485;37.558;126.950;2023-03-12T06:39:38;18.50;;;9.50;;
10863;SDS011;5485;37.558;126.950;2023-03-12T06:43:27;23.33;;;10.47;;
10863;SDS011;5485;37.558;126.950;2023-03-12T06:45:58;17.33;;;10.00;;
10863;SDS011;5485;37.558;126.950;2023-03-12T06:48:27;24.97;;;10.10;;
10863;SDS011;5485;37.558;126.950;2023-03-12T06:50:55;23.10;;;10.13;;
10863;SDS011;5485;37.558;126.950;2023-03-12T06:53:22;19.53;;;9.90;;
10863;SDS011;5485;37.558;126.950;2023-03-12T06:55:50;17.20;;;10.30;;
10863;SDS011;5485;37.558;126.950;2023-03-12T06:58:17;19.30;;;10.87;;
10863;SDS011;5485;37.558;126.950;2023-03-12T07:00:44;26.43;;;10.30;;
10863;SDS011;5485;37.558;126.950;2023-03-12T07:03:11;27.37;;;10.30;;
10863;SDS011;5485;37.558;126.950;2023-03-12T07:05:38;27.33;;;11.07;;
10863;SDS011;5485;37.558;126.950;2023-03-12T07:08:08;22.37;;;11.10;;
10863;SDS011;5485;37.558;126.950;2023-03-12T07:10:35;18.73;;;10.13;;
10863;SDS011;5485;37.558;126.950;2023-03-12T07:13:02;19.80;;;10.27;;
10863;SDS011;5485;37.558;126.950;2023-03-12T07:15:29;24.97;;;9.43;;
10863;SDS011;5485;37.558;126.950;2023-03-12T07:17:59;15.80;;;8.43;;
10863;SDS011;5485;37.558;126.950;2023-03-12T07:20:29;20.43;;;8.73;;
10863;SDS011;5485;37.558;126.950;2023-03-12T07:22:57;14.97;;;8.67;;
10863;SDS011;5485;37.558;126.950;2023-03-12T07:25:25;19.57;;;7.57;;
10863;SDS011;5485;37.558;126.950;2023-03-12T07:27:52;25.50;;;8.23;;
10863;SDS011;5485;37.558;126.950;2023-03-12T07:30:19;14.13;;;6.80;;
10863;SDS011;5485;37.558;126.950;2023-03-12T07:32:46;13.67;;;6.93;;
10863;SDS011;5485;37.558;126.950;2023-03-12T07:35:13;19.53;;;7.37;;
10863;SDS011;5485;37.558;126.950;2023-03-12T07:37:40;20.33;;;7.77;;
10863;SDS011;5485;37.558;126.950;2023-03-12T07:40:07;14.57;;;6.47;;
10863;SDS011;5485;37.558;126.950;2023-03-12T07:42:34;16.53;;;6.33;;
10863;SDS011;5485;37.558;126.950;2023-03-12T07:45:01;15.87;;;6.37;;
10863;SDS011;5485;37.558;126.950;2023-03-12T07:47:28;16.67;;;6.23;;
10863;SDS011;5485;37.558;126.950;2023-03-12T07:49:55;15.13;;;6.17;;
10863;SDS011;5485;37.558;126.950;2023-03-12T07:52:22;19.03;;;6.47;;
10863;SDS011;5485;37.558;126.950;2023-03-12T07:54:49;15.10;;;7.37;;
10863;SDS011;5485;37.558;126.950;2023-03-12T07:57:16;17.53;;;6.80;;
10863;SDS011;5485;37.558;126.950;2023-03-12T07:59:43;19.63;;;6.83;;
10863;SDS011;5485;37.558;126.950;2023-03-12T08:02:11;14.90;;;6.27;;
10863;SDS011;5485;37.558;126.950;2023-03-12T08:04:38;10.47;;;6.03;;
10863;SDS011;5485;37.558;126.950;2023-03-12T08:07:05;8.57;;;4.70;;
10863;SDS011;5485;37.558;126.950;2023-03-12T08:09:32;12.50;;;5.53;;
10863;SDS011;5485;37.558;126.950;2023-03-12T08:11:59;13.00;;;5.63;;
10863;SDS011;5485;37.558;126.950;2023-03-12T08:14:26;12.77;;;5.93;;
10863;SDS011;5485;37.558;126.950;2023-03-12T08:16:56;13.13;;;5.60;;
10863;SDS011;5485;37.558;126.950;2023-03-12T08:19:26;7.70;;;5.90;;
10863;SDS011;5485;37.558;126.950;2023-03-12T08:21:53;19.80;;;5.10;;
10863;SDS011;5485;37.558;126.950;2023-03-12T08:24:20;10.50;;;5.77;;
10863;SDS011;5485;37.558;126.950;2023-03-12T08:26:50;11.37;;;4.93;;
10863;SDS011;5485;37.558;126.950;2023-03-12T08:29:17;14.67;;;6.10;;
10863;SDS011;5485;37.558;126.950;2023-03-12T08:31:44;13.20;;;6.47;;
10863;SDS011;5485;37.558;126.950;2023-03-12T08:34:14;14.33;;;6.50;;
10863;SDS011;5485;37.558;126.950;2023-03-12T08:36:41;13.67;;;6.50;;
10863;SDS011;5485;37.558;126.950;2023-03-12T08:39:08;16.03;;;6.20;;
10863;SDS011;5485;37.558;126.950;2023-03-12T08:41:34;10.70;;;6.07;;
10863;SDS011;5485;37.558;126.950;2023-03-12T08:44:01;17.40;;;6.53;;
10863;SDS011;5485;37.558;126.950;2023-03-12T08:46:28;11.70;;;5.67;;
10863;SDS011;5485;37.558;126.950;2023-03-12T08:48:55;11.30;;;5.57;;
10863;SDS011;5485;37.558;126.950;2023-03-12T08:51:22;10.70;;;4.63;;
10863;SDS011;5485;37.558;126.950;2023-03-12T08:53:49;18.83;;;7.33;;
10863;SDS011;5485;37.558;126.950;2023-03-12T08:56:16;9.63;;;5.10;;
10863;SDS011;5485;37.558;126.950;2023-03-12T08:58:43;10.97;;;5.43;;
10863;SDS011;5485;37.558;126.950;2023-03-12T09:01:10;6.87;;;4.63;;
10863;SDS011;5485;37.558;126.950;2023-03-12T09:03:38;10.93;;;6.07;;
10863;SDS011;5485;37.558;126.950;2023-03-12T09:06:09;10.23;;;4.37;;
10863;SDS011;5485;37.558;126.950;2023-03-12T09:08:44;11.27;;;5.70;;
10863;SDS011;5485;37.558;126.950;2023-03-12T09:11:12;12.80;;;5.30;;
10863;SDS011;5485;37.558;126.950;2023-03-12T09:13:40;10.93;;;5.20;;
10863;SDS011;5485;37.558;126.950;2023-03-12T09:16:08;7.83;;;5.40;;
10863;SDS011;5485;37.558;126.950;2023-03-12T09:18:35;11.43;;;5.20;;
10863;SDS011;5485;37.558;126.950;2023-03-12T09:21:10;13.13;;;5.10;;
10863;SDS011;5485;37.558;126.950;2023-03-12T09:23:39;13.17;;;6.00;;
10863;SDS011;5485;37.558;126.950;2023-03-12T09:26:12;9.80;;;4.37;;
10863;SDS011;5485;37.558;126.950;2023-03-12T09:28:40;11.23;;;4.90;;
10863;SDS011;5485;37.558;126.950;2023-03-12T09:31:09;8.20;;;3.53;;
10863;SDS011;5485;37.558;126.950;2023-03-12T09:33:36;12.43;;;4.47;;
10863;SDS011;5485;37.558;126.950;2023-03-12T09:36:03;12.90;;;4.83;;
10863;SDS011;5485;37.558;126.950;2023-03-12T09:38:33;7.53;;;4.10;;
10863;SDS011;5485;37.558;126.950;2023-03-12T09:41:03;8.90;;;4.93;;
10863;SDS011;5485;37.558;126.950;2023-03-12T09:43:39;10.17;;;4.50;;
10863;SDS011;5485;37.558;126.950;2023-03-12T09:49:10;7.70;;;4.00;;
10863;SDS011;5485;37.558;126.950;2023-03-12T09:51:45;6.60;;;3.90;;
10863;SDS011;5485;37.558;126.950;2023-03-12T09:56:57;3.83;;;3.20;;
10863;SDS011;5485;37.558;126.950;2023-03-12T09:59:28;10.70;;;4.20;;
10863;SDS011;5485;37.558;126.950;2023-03-12T10:01:56;5.97;;;3.90;;
10863;SDS011;5485;37.558;126.950;2023-03-12T10:18:19;7.27;;;2.97;;
10863;SDS011;5485;37.558;126.950;2023-03-12T10:23:37;10.97;;;3.20;;
10863;SDS011;5485;37.558;126.950;2023-03-12T10:26:25;7.87;;;3.40;;
10863;SDS011;5485;37.558;126.950;2023-03-12T10:29:02;4.90;;;3.13;;
10863;SDS011;5485;37.558;126.950;2023-03-12T10:39:47;3.80;;;3.37;;
10863;SDS011;5485;37.558;126.950;2023-03-12T10:42:19;5.87;;;3.67;;
10863;SDS011;5485;37.558;126.950;2023-03-12T10:44:51;11.07;;;3.80;;
10863;SDS011;5485;37.558;126.950;2023-03-12T10:47:35;6.67;;;3.40;;
10863;SDS011;5485;37.558;126.950;2023-03-12T10:50:18;5.80;;;4.00;;
10863;SDS011;5485;37.558;126.950;2023-03-12T10:58:45;8.17;;;4.30;;
10863;SDS011;5485;37.558;126.950;2023-03-12T11:01:21;4.87;;;3.00;;
10863;SDS011;5485;37.558;126.950;2023-03-12T11:04:08;9.97;;;3.80;;
10863;SDS011;5485;37.558;126.950;2023-03-12T11:06:45;9.90;;;3.47;;
10863;SDS011;5485;37.558;126.950;2023-03-12T11:09:28;10.87;;;4.20;;
10863;SDS011;5485;37.558;126.950;2023-03-12T11:11:55;8.10;;;3.93;;
10863;SDS011;5485;37.558;126.950;2023-03-12T11:14:23;7.57;;;3.93;;
10863;SDS011;5485;37.558;126.950;2023-03-12T11:16:55;14.97;;;4.20;;
10863;SDS011;5485;37.558;126.950;2023-03-12T11:19:29;9.97;;;4.20;;
10863;SDS011;5485;37.558;126.950;2023-03-12T11:22:05;6.97;;;4.40;;
10863;SDS011;5485;37.558;126.950;2023-03-12T11:24:33;6.87;;;3.43;;
10863;SDS011;5485;37.558;126.950;2023-03-12T11:28:00;7.67;;;3.83;;
10863;SDS011;5485;37.558;126.950;2023-03-12T11:30:10;7.07;;;4.33;;
10863;SDS011;5485;37.558;126.950;2023-03-12T11:32:46;6.50;;;3.67;;
10863;SDS011;5485;37.558;126.950;2023-03-12T11:35:15;5.33;;;3.47;;
10863;SDS011;5485;37.558;126.950;2023-03-12T11:38:00;5.37;;;3.07;;
10863;SDS011;5485;37.558;126.950;2023-03-12T11:40:48;9.60;;;4.33;;
10863;SDS011;5485;37.558;126.950;2023-03-12T11:45:47;11.83;;;4.47;;
10863;SDS011;5485;37.558;126.950;2023-03-12T11:49:16;10.23;;;4.20;;
10863;SDS011;5485;37.558;126.950;2023-03-12T11:51:27;6.13;;;3.87;;
10863;SDS011;5485;37.558;126.950;2023-03-12T11:56:52;6.23;;;4.03;;
10863;SDS011;5485;37.558;126.950;2023-03-12T12:04:55;11.87;;;4.10;;
10863;SDS011;5485;37.558;126.950;2023-03-12T12:07:40;7.17;;;3.83;;
10863;SDS011;5485;37.558;126.950;2023-03-12T12:10:21;4.23;;;3.27;;
10863;SDS011;5485;37.558;126.950;2023-03-12T12:15:37;8.47;;;3.97;;
10863;SDS011;5485;37.558;126.950;2023-03-12T12:21:22;11.83;;;5.17;;
10863;SDS011;5485;37.558;126.950;2023-03-12T12:23:59;12.23;;;4.23;;
10863;SDS011;5485;37.558;126.950;2023-03-12T12:26:56;7.67;;;4.27;;
10863;SDS011;5485;37.558;126.950;2023-03-12T12:29:49;7.50;;;5.07;;
10863;SDS011;5485;37.558;126.950;2023-03-12T12:35:35;7.37;;;4.23;;
10863;SDS011;5485;37.558;126.950;2023-03-12T12:38:22;8.97;;;4.30;;
10863;SDS011;5485;37.558;126.950;2023-03-12T12:41:23;11.00;;;4.97;;
10863;SDS011;5485;37.558;126.950;2023-03-12T12:43:55;5.03;;;4.00;;
10863;SDS011;5485;37.558;126.950;2023-03-12T12:46:27;8.50;;;4.40;;
10863;SDS011;5485;37.558;126.950;2023-03-12T12:51:40;4.70;;;4.20;;
10863;SDS011;5485;37.558;126.950;2023-03-12T12:57:06;8.20;;;3.47;;
10863;SDS011;5485;37.558;126.950;2023-03-12T12:59:40;9.23;;;4.60;;
10863;SDS011;5485;37.558;126.950;2023-03-12T13:02:37;10.23;;;4.43;;
10863;SDS011;5485;37.558;126.950;2023-03-12T13:05:25;7.07;;;4.97;;
10863;SDS011;5485;37.558;126.950;2023-03-12T13:08:02;6.40;;;4.50;;
10863;SDS011;5485;37.558;126.950;2023-03-12T13:13:18;9.10;;;4.47;;
10863;SDS011;5485;37.558;126.950;2023-03-12T13:15:48;9.43;;;4.23;;
10863;SDS011;5485;37.558;126.950;2023-03-12T13:26:13;8.07;;;4.77;;
10863;SDS011;5485;37.558;126.950;2023-03-12T13:33:55;8.67;;;4.23;;
10863;SDS011;5485;37.558;126.950;2023-03-12T13:36:51;11.87;;;4.70;;
10863;SDS011;5485;37.558;126.950;2023-03-12T13:39:29;11.83;;;5.50;;
10863;SDS011;5485;37.558;126.950;2023-03-12T13:41:58;9.10;;;4.97;;
10863;SDS011;5485;37.558;126.950;2023-03-12T13:47:02;7.60;;;4.50;;
10863;SDS011;5485;37.558;126.950;2023-03-12T13:52:22;8.63;;;4.07;;
10863;SDS011;5485;37.558;126.950;2023-03-12T13:55:04;10.57;;;5.00;;
10863;SDS011;5485;37.558;126.950;2023-03-12T13:57:47;11.80;;;4.70;;
10863;SDS011;5485;37.558;126.950;2023-03-12T14:03:28;5.43;;;4.47;;
10863;SDS011;5485;37.558;126.950;2023-03-12T14:06:06;16.43;;;4.47;;
10863;SDS011;5485;37.558;126.950;2023-03-12T14:16:41;8.87;;;4.53;;
10863;SDS011;5485;37.558;126.950;2023-03-12T14:19:17;6.63;;;4.17;;
10863;SDS011;5485;37.558;126.950;2023-03-12T14:21:52;9.63;;;4.57;;
10863;SDS011;5485;37.558;126.950;2023-03-12T14:24:29;14.83;;;4.70;;
10863;SDS011;5485;37.558;126.950;2023-03-12T14:26:57;12.00;;;4.53;;
10863;SDS011;5485;37.558;126.950;2023-03-12T14:29:37;6.17;;;3.90;;
10863;SDS011;5485;37.558;126.950;2023-03-12T14:32:24;10.90;;;4.50;;
10863;SDS011;5485;37.558;126.950;2023-03-12T14:35:15;14.90;;;4.80;;
10863;SDS011;5485;37.558;126.950;2023-03-12T14:44:09;7.83;;;4.17;;
10863;SDS011;5485;37.558;126.950;2023-03-12T14:47:01;9.53;;;3.63;;
10863;SDS011;5485;37.558;126.950;2023-03-12T14:49:40;11.07;;;4.57;;
10863;SDS011;5485;37.558;126.950;2023-03-12T14:52:11;14.13;;;4.30;;
10863;SDS011;5485;37.558;126.950;2023-03-12T14:57:23;10.97;;;3.80;;
10863;SDS011;5485;37.558;126.950;2023-03-12T14:59:51;7.20;;;4.07;;
10863;SDS011;5485;37.558;126.950;2023-03-12T15:02:22;11.43;;;3.83;;
10863;SDS011;5485;37.558;126.950;2023-03-12T15:04:53;8.60;;;3.57;;
10863;SDS011;5485;37.558;126.950;2023-03-12T15:07:28;6.97;;;3.43;;
10863;SDS011;5485;37.558;126.950;2023-03-12T15:10:05;6.57;;;3.63;;
10863;SDS011;5485;37.558;126.950;2023-03-12T15:12:46;5.90;;;2.60;;
10863;SDS011;5485;37.558;126.950;2023-03-12T15:18:20;5.93;;;3.67;;
10863;SDS011;5485;37.558;126.950;2023-03-12T15:20:50;6.47;;;2.63;;
10863;SDS011;5485;37.558;126.950;2023-03-12T15:23:19;13.37;;;3.50;;
10863;SDS011;5485;37.558;126.950;2023-03-12T15:26:10;14.30;;;3.90;;
10863;SDS011;5485;37.558;126.950;2023-03-12T15:31:39;10.23;;;3.50;;
10863;SDS011;5485;37.558;126.950;2023-03-12T15:34:10;3.90;;;2.93;;
10863;SDS011;5485;37.558;126.950;2023-03-12T15:36:45;7.23;;;3.20;;
10863;SDS011;5485;37.558;126.950;2023-03-12T15:39:28;4.03;;;3.30;;
10863;SDS011;5485;37.558;126.950;2023-03-12T15:42:14;7.50;;;3.47;;
10863;SDS011;5485;37.558;126.950;2023-03-12T15:44:52;11.77;;;3.07;;
10863;SDS011;5485;37.558;126.950;2023-03-12T15:47:23;9.83;;;3.77;;
10863;SDS011;5485;37.558;126.950;2023-03-12T15:49:56;5.80;;;3.40;;
10863;SDS011;5485;37.558;126.950;2023-03-12T15:52:31;12.47;;;3.10;;
10863;SDS011;5485;37.558;126.950;2023-03-12T15:57:56;7.00;;;3.23;;
10863;SDS011;5485;37.558;126.950;2023-03-12T16:00:25;5.83;;;3.20;;
10863;SDS011;5485;37.558;126.950;2023-03-12T16:03:21;7.97;;;3.17;;
10863;SDS011;5485;37.558;126.950;2023-03-12T16:05:48;9.73;;;3.87;;
10863;SDS011;5485;37.558;126.950;2023-03-12T16:08:22;3.63;;;3.00;;
10863;SDS011;5485;37.558;126.950;2023-03-12T16:10:54;6.00;;;3.60;;
10863;SDS011;5485;37.558;126.950;2023-03-12T16:13:28;4.73;;;3.57;;
10863;SDS011;5485;37.558;126.950;2023-03-12T16:15:57;10.83;;;3.80;;
10863;SDS011;5485;37.558;126.950;2023-03-12T16:18:24;6.67;;;3.80;;
10863;SDS011;5485;37.558;126.950;2023-03-12T16:20:52;4.23;;;3.07;;
10863;SDS011;5485;37.558;126.950;2023-03-12T16:23:19;6.33;;;2.60;;
10863;SDS011;5485;37.558;126.950;2023-03-12T16:25:47;4.03;;;3.17;;
10863;SDS011;5485;37.558;126.950;2023-03-12T16:28:19;11.73;;;2.80;;
10863;SDS011;5485;37.558;126.950;2023-03-12T16:30:46;5.27;;;3.67;;
10863;SDS011;5485;37.558;126.950;2023-03-12T16:33:14;10.10;;;3.20;;
10863;SDS011;5485;37.558;126.950;2023-03-12T16:35:43;7.33;;;3.90;;
10863;SDS011;5485;37.558;126.950;2023-03-12T16:38:10;5.33;;;3.73;;
10863;SDS011;5485;37.558;126.950;2023-03-12T16:40:38;11.03;;;3.03;;
10863;SDS011;5485;37.558;126.950;2023-03-12T16:43:13;6.93;;;3.90;;
10863;SDS011;5485;37.558;126.950;2023-03-12T16:45:48;6.73;;;3.40;;
10863;SDS011;5485;37.558;126.950;2023-03-12T16:48:17;9.47;;;4.13;;